createdAt,value
2022-12-11T00:03:17.647Z,14.38
2022-12-11T00:05:45.247Z,12.90
2022-12-11T00:08:13.305Z,15.20
2022-12-11T00:10:39.857Z,13.70
2022-12-11T00:13:06.994Z,13.98
2022-12-11T00:15:33.777Z,12.60
2022-12-11T00:18:00.457Z,12.35
2022-12-11T00:20:27.801Z,12.30
2022-12-11T00:22:55.077Z,13.15
2022-12-11T00:25:23.077Z,15.10
2022-12-11T00:27:49.744Z,13.93
2022-12-11T00:30:16.475Z,15.15
2022-12-11T00:32:44.046Z,14.98
2022-12-11T00:35:11.434Z,14.95
2022-12-11T00:37:38.496Z,17.52
2022-12-11T00:40:05.954Z,13.18
2022-12-11T00:42:33.730Z,14.60
2022-12-11T00:45:00.994Z,15.57
2022-12-11T00:47:27.846Z,13.73
2022-12-11T00:49:55.390Z,13.85
2022-12-11T00:52:22.633Z,13.52
2022-12-11T00:54:49.485Z,12.80
2022-12-11T00:57:16.167Z,13.60
2022-12-11T00:59:42.890Z,12.68
2022-12-11T01:02:09.520Z,13.98
2022-12-11T01:04:37.038Z,14.50
2022-12-11T01:07:04.106Z,14.07
2022-12-11T01:09:49.983Z,13.80
2022-12-11T01:12:16.806Z,15.02
2022-12-11T01:14:43.858Z,15.07
2022-12-11T01:17:11.891Z,14.27
2022-12-11T01:22:06.470Z,15.10
2022-12-11T01:24:33.309Z,14.38
2022-12-11T01:27:00.302Z,14.15
2022-12-11T01:29:27.249Z,11.82
2022-12-11T01:31:53.803Z,12.70
2022-12-11T01:34:20.709Z,13.20
2022-12-11T01:36:47.363Z,14.23
2022-12-11T01:39:13.965Z,16.08
2022-12-11T01:41:40.444Z,15.35
2022-12-11T01:44:28.398Z,14.95
2022-12-11T01:46:55.011Z,14.48
2022-12-11T01:51:59.285Z,13.75
2022-12-11T01:54:28.242Z,14.15
2022-12-11T01:57:00.918Z,14.25
2022-12-11T01:59:29.273Z,15.07
2022-12-11T02:02:00.795Z,16.80
2022-12-11T02:04:29.723Z,13.35
2022-12-11T02:06:56.602Z,14.90
2022-12-11T02:09:28.247Z,12.98
2022-12-11T02:12:11.144Z,14.75
2022-12-11T02:14:58.119Z,13.05
2022-12-11T02:17:50.849Z,13.40
2022-12-11T02:20:23.567Z,13.65
2022-12-11T02:23:15.394Z,12.35
2022-12-11T02:26:16.525Z,15.07
2022-12-11T02:28:51.003Z,12.95
2022-12-11T02:31:26.089Z,15.45
2022-12-11T02:34:13.282Z,15.40
2022-12-11T02:36:44.429Z,14.27
2022-12-11T02:39:14.225Z,15.82
2022-12-11T02:41:46.591Z,14.00
2022-12-11T02:44:15.961Z,15.32
2022-12-11T02:46:44.513Z,13.60
2022-12-11T02:49:13.566Z,12.50
2022-12-11T02:51:42.048Z,16.25
2022-12-11T02:54:16.856Z,14.50
2022-12-11T02:56:49.783Z,15.63
2022-12-11T02:59:23.420Z,15.25
2022-12-11T03:01:50.842Z,17.27
2022-12-11T03:04:17.515Z,16.15
2022-12-11T03:06:50.103Z,15.18
2022-12-11T03:09:16.878Z,15.30
2022-12-11T03:11:43.422Z,14.02
2022-12-11T03:14:10.194Z,14.20
2022-12-11T03:16:59.859Z,15.23
2022-12-11T03:19:37.090Z,16.65
2022-12-11T03:22:12.336Z,14.25
2022-12-11T03:24:53.993Z,14.25
2022-12-11T03:27:34.348Z,13.88
2022-12-11T03:30:11.503Z,16.13
2022-12-11T03:32:53.002Z,14.77
2022-12-11T03:35:27.741Z,18.48
2022-12-11T03:37:56.631Z,15.50
2022-12-11T03:40:25.901Z,14.30
2022-12-11T03:42:56.993Z,15.20
2022-12-11T03:45:27.055Z,15.65
2022-12-11T03:47:58.111Z,14.63
2022-12-11T03:50:27.877Z,15.00
2022-12-11T03:52:56.410Z,14.57
2022-12-11T03:55:24.647Z,13.95
2022-12-11T03:57:51.164Z,14.77
2022-12-11T04:00:21.043Z,15.40
2022-12-11T04:03:13.321Z,15.02
2022-12-11T04:05:53.217Z,16.15
2022-12-11T04:08:20.959Z,13.90
2022-12-11T04:10:48.963Z,16.70
2022-12-11T04:13:16.048Z,15.05
2022-12-11T04:15:43.211Z,15.20
2022-12-11T04:18:28.861Z,16.15
2022-12-11T04:21:15.497Z,15.55
2022-12-11T04:24:00.923Z,15.88
2022-12-11T04:26:28.006Z,14.27
2022-12-11T04:28:54.824Z,15.55
2022-12-11T04:31:23.966Z,15.00
2022-12-11T04:33:50.789Z,15.55
2022-12-11T04:36:18.417Z,15.18
2022-12-11T04:38:46.235Z,16.70
2022-12-11T04:41:15.103Z,16.90
2022-12-11T04:43:46.297Z,14.23
2022-12-11T04:46:20.112Z,17.00
2022-12-11T04:51:20.096Z,14.57
2022-12-11T04:56:16.456Z,17.52
2022-12-11T04:58:44.163Z,15.70
2022-12-11T05:01:15.612Z,15.90
2022-12-11T05:03:43.361Z,15.60
2022-12-11T05:06:11.528Z,16.35
2022-12-11T05:08:40.448Z,16.08
2022-12-11T05:11:14.763Z,15.65
2022-12-11T05:13:41.874Z,17.25
2022-12-11T05:16:12.400Z,15.75
2022-12-11T05:18:40.307Z,16.08
2022-12-11T05:21:11.253Z,17.70
2022-12-11T05:23:39.008Z,16.83
2022-12-11T05:26:09.316Z,15.77
2022-12-11T05:28:38.721Z,16.02
2022-12-11T05:31:12.994Z,16.02
2022-12-11T05:33:40.132Z,16.83
2022-12-11T05:36:08.075Z,16.73
2022-12-11T05:38:35.051Z,16.75
2022-12-11T05:43:33.325Z,15.15
2022-12-11T05:46:31.685Z,17.52
2022-12-11T05:49:01.755Z,16.13
2022-12-11T05:51:29.768Z,20.17
2022-12-11T05:53:57.554Z,18.45
2022-12-11T05:56:27.555Z,17.30
2022-12-11T05:58:56.203Z,18.80
2022-12-11T06:01:30.359Z,19.33
2022-12-11T06:03:59.264Z,18.58
2022-12-11T06:06:27.666Z,20.48
2022-12-11T06:08:57.296Z,16.10
2022-12-11T06:11:24.773Z,16.42
2022-12-11T06:13:52.909Z,16.45
2022-12-11T06:16:20.327Z,15.82
2022-12-11T06:18:48.839Z,16.58
2022-12-11T06:21:21.640Z,16.88
2022-12-11T06:23:51.160Z,15.50
2022-12-11T06:26:18.996Z,16.23
2022-12-11T06:28:46.336Z,17.98
2022-12-11T06:31:14.048Z,17.55
2022-12-11T06:33:43.659Z,15.50
2022-12-11T06:36:14.003Z,15.55
2022-12-11T06:38:40.824Z,14.60
2022-12-11T06:41:08.415Z,16.42
2022-12-11T06:43:37.615Z,14.02
2022-12-11T06:46:18.950Z,16.80
2022-12-11T06:48:47.855Z,13.73
2022-12-11T06:51:16.819Z,15.77
2022-12-11T06:53:44.424Z,16.17
2022-12-11T06:56:15.580Z,15.43
2022-12-11T06:58:43.403Z,15.95
2022-12-11T07:01:27.933Z,16.92
2022-12-11T07:03:59.992Z,14.68
2022-12-11T07:06:28.594Z,15.35
2022-12-11T07:08:56.086Z,15.50
2022-12-11T07:11:23.254Z,17.38
2022-12-11T07:13:51.077Z,12.93
2022-12-11T07:16:18.934Z,15.63
2022-12-11T07:18:49.265Z,14.98
2022-12-11T07:21:17.462Z,15.20
2022-12-11T07:23:45.278Z,13.52
2022-12-11T07:26:15.011Z,15.95
2022-12-11T07:28:42.641Z,16.40
2022-12-11T07:31:13.060Z,16.50
2022-12-11T07:33:40.670Z,15.85
2022-12-11T07:36:10.041Z,14.07
2022-12-11T07:38:37.573Z,14.50
2022-12-11T07:41:07.135Z,16.42
2022-12-11T07:43:35.678Z,15.13
2022-12-11T07:46:05.630Z,15.65
2022-12-11T07:48:38.650Z,15.55
2022-12-11T07:51:12.449Z,16.27
2022-12-11T07:53:43.645Z,14.38
2022-12-11T07:56:11.031Z,16.55
2022-12-11T07:58:38.867Z,16.08
2022-12-11T08:01:06.541Z,14.38
2022-12-11T08:03:34.450Z,15.20
2022-12-11T08:06:01.848Z,16.63
2022-12-11T08:08:28.971Z,16.42
2022-12-11T08:10:56.086Z,15.15
2022-12-11T08:13:23.517Z,14.63
2022-12-11T08:15:50.206Z,15.82
2022-12-11T08:18:17.206Z,14.32
2022-12-11T08:20:44.329Z,12.95
2022-12-11T08:23:12.006Z,16.35
2022-12-11T08:25:39.085Z,15.27
2022-12-11T08:28:06.170Z,13.15
2022-12-11T08:30:35.557Z,16.27
2022-12-11T08:33:03.491Z,14.55
2022-12-11T08:35:31.262Z,15.43
2022-12-11T08:37:58.278Z,15.10
2022-12-11T08:40:25.741Z,15.00
2022-12-11T08:42:53.189Z,14.57
2022-12-11T08:45:21.179Z,13.50
2022-12-11T08:47:48.305Z,12.25
2022-12-11T08:50:15.498Z,14.52
2022-12-11T08:52:42.536Z,14.73
2022-12-11T08:55:09.887Z,12.98
2022-12-11T08:57:39.651Z,12.35
2022-12-11T09:00:08.924Z,14.60
2022-12-11T09:02:36.278Z,14.80
2022-12-11T09:05:07.733Z,13.80
2022-12-11T09:07:36.749Z,14.27
2022-12-11T09:10:05.043Z,14.32
2022-12-11T09:12:35.130Z,14.88
2022-12-11T09:15:04.021Z,15.52
2022-12-11T09:17:31.904Z,14.32
2022-12-11T09:19:58.909Z,16.02
2022-12-11T09:22:25.665Z,15.52
2022-12-11T09:24:52.377Z,16.02
2022-12-11T09:27:21.189Z,13.90
2022-12-11T09:29:48.544Z,13.82
2022-12-11T09:34:42.960Z,16.10
2022-12-11T09:37:09.896Z,14.98
2022-12-11T09:39:37.358Z,14.75
2022-12-11T09:42:07.370Z,15.57
2022-12-11T09:44:39.747Z,12.75
2022-12-11T09:47:19.537Z,14.55
2022-12-11T09:49:50.328Z,13.65
2022-12-11T09:52:29.451Z,14.80
2022-12-11T09:55:00.800Z,15.40
2022-12-11T09:57:39.566Z,14.00
2022-12-11T10:00:16.101Z,12.80
2022-12-11T10:02:55.041Z,12.32
2022-12-11T10:08:30.413Z,14.10
2022-12-11T10:11:07.504Z,14.73
2022-12-11T10:14:17.848Z,14.38
2022-12-11T10:16:48.722Z,16.02
2022-12-11T10:19:26.315Z,13.63
2022-12-11T10:21:54.398Z,15.25
2022-12-11T10:25:07.674Z,17.30
2022-12-11T10:27:23.847Z,16.67
2022-12-11T10:30:14.001Z,15.95
2022-12-11T10:32:51.575Z,16.90
2022-12-11T10:35:27.698Z,16.85
2022-12-11T10:38:12.087Z,16.05
2022-12-11T10:40:43.020Z,18.02
2022-12-11T10:43:10.900Z,16.75
2022-12-11T10:45:38.247Z,13.98
2022-12-11T10:48:07.333Z,13.32
2022-12-11T10:50:34.598Z,16.33
2022-12-11T10:53:01.945Z,14.43
2022-12-11T10:58:01.575Z,14.70
2022-12-11T11:00:34.036Z,16.90
2022-12-11T11:03:02.643Z,20.45
2022-12-11T11:05:32.294Z,18.63
2022-12-11T11:08:19.471Z,14.90
2022-12-11T11:10:57.663Z,14.60
2022-12-11T11:13:27.832Z,16.80
2022-12-11T11:16:02.865Z,20.02
2022-12-11T11:18:31.783Z,16.75
2022-12-11T11:20:59.513Z,16.90
2022-12-11T11:23:27.617Z,14.15
2022-12-11T11:26:07.217Z,15.25
2022-12-11T11:28:37.761Z,15.23
2022-12-11T11:31:13.667Z,13.98
2022-12-11T11:34:05.704Z,12.73
2022-12-11T11:36:38.956Z,13.55
2022-12-11T11:39:20.792Z,23.38
2022-12-11T11:42:12.320Z,14.93
2022-12-11T11:44:45.079Z,18.55
2022-12-11T11:47:19.170Z,12.70
2022-12-11T11:50:03.249Z,11.15
2022-12-11T11:52:41.992Z,11.48
2022-12-11T11:55:22.307Z,11.98
2022-12-11T11:57:52.069Z,11.88
2022-12-11T12:00:33.327Z,13.52
2022-12-11T12:03:10.961Z,11.05
2022-12-11T12:05:57.074Z,12.05
2022-12-11T12:08:41.293Z,12.23
2022-12-11T12:11:38.925Z,11.60
2022-12-11T12:14:51.980Z,11.50
2022-12-11T12:17:41.505Z,11.90
2022-12-11T12:20:45.809Z,12.70
2022-12-11T12:23:50.194Z,11.43
2022-12-11T12:26:31.597Z,11.23
2022-12-11T12:29:20.852Z,11.90
2022-12-11T12:32:08.279Z,11.23
2022-12-11T12:34:50.992Z,10.48
2022-12-11T12:38:07.428Z,12.45
2022-12-11T12:41:03.655Z,11.90
2022-12-11T12:43:49.074Z,12.55
2022-12-11T12:46:52.311Z,10.52
2022-12-11T12:49:42.511Z,12.60
2022-12-11T12:52:29.549Z,10.73
2022-12-11T12:55:20.988Z,11.60
2022-12-11T12:57:57.672Z,12.63
2022-12-11T13:00:30.564Z,12.27
2022-12-11T13:03:02.806Z,12.48
2022-12-11T13:05:33.668Z,11.60
2022-12-11T13:08:04.663Z,12.13
2022-12-11T13:10:37.502Z,10.93
2022-12-11T13:13:25.310Z,11.73
2022-12-11T13:15:52.023Z,11.32
2022-12-11T13:18:39.169Z,11.95
2022-12-11T13:21:27.265Z,10.68
2022-12-11T13:23:54.447Z,12.38
2022-12-11T13:28:58.995Z,13.52
2022-12-11T13:31:38.005Z,9.98
2022-12-11T13:34:22.264Z,9.43
2022-12-11T13:36:50.943Z,8.23
2022-12-11T13:39:22.513Z,9.38
2022-12-11T13:41:54.589Z,8.50
2022-12-11T13:44:29.087Z,8.45
2022-12-11T13:46:58.544Z,8.32
2022-12-11T13:49:31.092Z,7.90
2022-12-11T13:51:59.648Z,8.00
2022-12-11T13:54:28.246Z,8.48
2022-12-11T13:57:15.001Z,7.90
2022-12-11T13:59:47.952Z,6.90
2022-12-11T14:02:44.924Z,8.52
2022-12-11T14:05:13.515Z,8.38
2022-12-11T14:07:44.171Z,7.82
2022-12-11T14:10:15.026Z,8.73
2022-12-11T14:12:59.023Z,8.00
2022-12-11T14:15:28.986Z,8.05
2022-12-11T14:20:32.468Z,8.35
2022-12-11T14:23:07.078Z,7.75
2022-12-11T14:25:34.224Z,7.65
2022-12-11T14:28:01.681Z,9.15
2022-12-11T14:30:32.154Z,8.00
2022-12-11T14:33:02.581Z,9.23
2022-12-11T14:35:38.661Z,7.63
2022-12-11T14:38:15.024Z,9.05
2022-12-11T14:40:45.039Z,8.48
2022-12-11T14:43:20.354Z,7.95
2022-12-11T14:45:50.173Z,8.05
2022-12-11T14:48:22.232Z,7.18
2022-12-11T14:50:55.187Z,6.93
2022-12-11T14:53:27.858Z,7.32
2022-12-11T14:55:57.803Z,6.72
2022-12-11T14:58:26.954Z,7.13
2022-12-11T15:01:07.587Z,7.32
2022-12-11T15:03:37.293Z,6.35
2022-12-11T15:06:25.822Z,7.38
2022-12-11T15:08:54.357Z,7.88
2022-12-11T15:11:23.610Z,6.40
2022-12-11T15:13:59.031Z,7.65
2022-12-11T15:16:28.964Z,6.47
2022-12-11T15:18:58.698Z,7.68
2022-12-11T15:21:30.737Z,7.18
2022-12-11T15:24:00.450Z,7.13
2022-12-11T15:26:44.786Z,7.43
2022-12-11T15:29:47.186Z,5.70
2022-12-11T15:32:14.083Z,7.07
2022-12-11T15:34:53.049Z,6.95
2022-12-11T15:37:26.810Z,7.03
2022-12-11T15:39:55.269Z,7.90
2022-12-11T15:42:29.836Z,8.55
2022-12-11T15:44:57.384Z,6.63
2022-12-11T15:47:27.973Z,7.65
2022-12-11T15:49:58.516Z,7.38
2022-12-11T15:52:25.672Z,6.57
2022-12-11T15:54:53.075Z,6.13
2022-12-11T15:57:23.714Z,7.65
2022-12-11T15:59:53.942Z,6.68
2022-12-11T16:02:21.463Z,6.97
2022-12-11T16:04:50.677Z,6.57
2022-12-11T16:07:22.132Z,7.25
2022-12-11T16:09:49.902Z,6.13
2022-12-11T16:12:17.370Z,5.80
2022-12-11T16:14:46.190Z,7.30
2022-12-11T16:17:14.823Z,5.90
2022-12-11T16:19:43.210Z,6.53
2022-12-11T16:22:11.116Z,6.47
2022-12-11T16:24:38.442Z,5.18
2022-12-11T16:27:07.545Z,6.43
2022-12-11T16:29:35.659Z,5.53
2022-12-11T16:32:02.810Z,5.18
2022-12-11T16:37:00.187Z,4.90
2022-12-11T16:39:27.400Z,5.40
2022-12-11T16:44:23.959Z,7.60
2022-12-11T16:46:52.132Z,6.90
2022-12-11T16:49:20.360Z,7.72
2022-12-11T16:51:47.053Z,5.68
2022-12-11T16:56:41.477Z,6.47
2022-12-11T16:59:09.093Z,6.43
2022-12-11T17:01:36.331Z,6.20
2022-12-11T17:04:03.003Z,6.63
2022-12-11T17:06:29.599Z,7.88
2022-12-11T17:08:56.360Z,5.80
2022-12-11T17:11:26.034Z,8.55
2022-12-11T17:13:55.156Z,8.25
2022-12-11T17:16:25.916Z,6.65
2022-12-11T17:18:53.288Z,6.45
2022-12-11T17:21:22.115Z,6.60
2022-12-11T17:23:50.370Z,10.45
2022-12-11T17:26:18.210Z,8.02
2022-12-11T17:28:45.797Z,6.80
2022-12-11T17:31:16.662Z,6.03
2022-12-11T17:33:46.102Z,7.47
2022-12-11T17:36:15.708Z,7.35
2022-12-11T17:38:43.093Z,7.55
2022-12-11T17:41:16.925Z,6.15
2022-12-11T17:43:52.849Z,6.53
2022-12-11T17:46:20.473Z,6.72
2022-12-11T17:48:48.603Z,6.53
2022-12-11T17:51:21.887Z,6.90
2022-12-11T17:53:48.797Z,6.55
2022-12-11T17:56:17.229Z,6.20
2022-12-11T17:58:44.463Z,5.97
2022-12-11T18:01:13.072Z,6.32
2022-12-11T18:03:41.028Z,6.85
2022-12-11T18:06:15.970Z,6.35
2022-12-11T18:08:44.286Z,7.70
2022-12-11T18:11:17.077Z,6.53
2022-12-11T18:13:45.431Z,6.13
2022-12-11T18:16:24.470Z,5.95
2022-12-11T18:18:52.028Z,5.53
2022-12-11T18:21:24.997Z,5.45
2022-12-11T18:23:52.469Z,5.93
2022-12-11T18:28:49.101Z,5.70
2022-12-11T18:31:17.068Z,5.40
2022-12-11T18:33:45.275Z,6.28
2022-12-11T18:36:15.596Z,5.95
2022-12-11T18:38:44.469Z,6.43
2022-12-11T18:41:13.166Z,5.72
2022-12-11T18:43:40.472Z,5.05
2022-12-11T18:48:36.301Z,4.75
2022-12-11T18:51:14.459Z,5.25
2022-12-11T18:53:42.155Z,4.90
2022-12-11T18:56:12.551Z,5.00
2022-12-11T18:58:40.424Z,5.15
2022-12-11T19:01:34.563Z,4.60
2022-12-11T19:04:06.533Z,4.47
2022-12-11T19:06:36.150Z,5.07
2022-12-11T19:09:05.893Z,4.20
2022-12-11T19:11:35.125Z,4.57
2022-12-11T19:14:04.458Z,4.93
2022-12-11T19:16:33.899Z,4.30
2022-12-11T19:19:06.428Z,4.70
2022-12-11T19:21:35.325Z,4.93
2022-12-11T19:24:02.198Z,4.90
2022-12-11T19:26:29.672Z,5.60
2022-12-11T19:31:29.790Z,5.40
2022-12-11T19:33:58.433Z,5.15
2022-12-11T19:36:27.331Z,4.93
2022-12-11T19:38:59.461Z,5.05
2022-12-11T19:41:31.011Z,5.03
2022-12-11T19:44:00.149Z,5.60
2022-12-11T19:46:28.686Z,5.03
2022-12-11T19:48:57.826Z,5.25
2022-12-11T19:51:28.488Z,5.55
2022-12-11T19:53:55.383Z,4.93
2022-12-11T19:56:23.377Z,4.95
2022-12-11T19:58:50.180Z,4.03
2022-12-11T20:01:24.907Z,4.70
2022-12-11T20:03:52.977Z,4.38
2022-12-11T20:06:21.224Z,4.97
2022-12-11T20:08:48.451Z,5.70
2022-12-11T20:11:18.588Z,5.25
2022-12-11T20:13:47.597Z,5.55
2022-12-11T20:16:15.631Z,6.28
2022-12-11T20:18:43.790Z,5.03
2022-12-11T20:21:14.278Z,5.50
2022-12-11T20:23:41.899Z,5.57
2022-12-11T20:26:14.399Z,5.85
2022-12-11T20:28:42.905Z,5.32
2022-12-11T20:33:49.189Z,4.75
2022-12-11T20:36:18.090Z,6.03
2022-12-11T20:38:45.141Z,5.07
2022-12-11T20:41:14.587Z,4.85
2022-12-11T20:43:41.873Z,4.88
2022-12-11T20:46:10.881Z,4.72
2022-12-11T20:48:39.038Z,5.82
2022-12-11T20:51:08.052Z,5.13
2022-12-11T20:53:36.136Z,5.20
2022-12-11T20:56:10.425Z,4.97
2022-12-11T20:58:37.602Z,5.32
2022-12-11T21:01:05.640Z,5.10
2022-12-11T21:03:38.917Z,5.50
2022-12-11T21:06:17.561Z,6.20
2022-12-11T21:08:44.923Z,5.70
2022-12-11T21:11:11.787Z,5.68
2022-12-11T21:13:38.941Z,7.18
2022-12-11T21:16:07.714Z,6.78
2022-12-11T21:18:34.855Z,6.15
2022-12-11T21:21:03.629Z,7.00
2022-12-11T21:23:32.405Z,8.48
2022-12-11T21:26:00.641Z,5.00
2022-12-11T21:28:33.561Z,7.75
2022-12-11T21:31:05.880Z,6.80
2022-12-11T21:33:34.323Z,7.07
2022-12-11T21:36:03.352Z,9.25
2022-12-11T21:38:30.388Z,7.90
2022-12-11T21:41:10.080Z,8.50
2022-12-11T21:43:52.606Z,7.45
2022-12-11T21:46:27.591Z,6.15
2022-12-11T21:48:55.090Z,7.28
2022-12-11T21:51:34.363Z,7.38
2022-12-11T21:54:05.067Z,7.60
2022-12-11T21:56:33.472Z,8.27
2022-12-11T21:59:01.627Z,7.70
2022-12-11T22:01:33.382Z,7.47
2022-12-11T22:04:01.777Z,7.45
2022-12-11T22:06:29.763Z,7.80
2022-12-11T22:08:56.721Z,6.32
2022-12-11T22:11:27.985Z,8.07
2022-12-11T22:13:55.306Z,7.50
2022-12-11T22:18:51.074Z,6.80
2022-12-11T22:21:18.146Z,7.95
2022-12-11T22:23:44.971Z,8.30
2022-12-11T22:26:17.264Z,7.72
2022-12-11T22:28:45.125Z,7.70
2022-12-11T22:31:17.596Z,8.38
2022-12-11T22:33:45.009Z,8.80
2022-12-11T22:36:12.269Z,10.80
2022-12-11T22:38:39.845Z,10.80
2022-12-11T22:41:11.122Z,8.55
2022-12-11T22:43:38.292Z,8.82
2022-12-11T22:46:05.181Z,9.02
2022-12-11T22:48:32.464Z,10.25
2022-12-11T22:51:04.884Z,8.50
2022-12-11T22:53:31.418Z,8.93
2022-12-11T22:55:58.569Z,9.32
2022-12-11T22:58:26.180Z,9.38
2022-12-11T23:00:52.852Z,7.82
2022-12-11T23:03:19.713Z,7.82
2022-12-11T23:08:14.905Z,6.68
2022-12-11T23:10:42.353Z,7.75
2022-12-11T23:13:09.278Z,7.20
2022-12-11T23:15:36.329Z,7.13
2022-12-11T23:18:03.454Z,8.68
2022-12-11T23:20:30.720Z,8.98
2022-12-11T23:25:24.754Z,8.23
2022-12-11T23:27:52.192Z,8.93
2022-12-11T23:30:18.852Z,8.30
2022-12-11T23:32:45.670Z,9.10
2022-12-11T23:35:12.739Z,7.50
2022-12-11T23:37:39.999Z,7.65
2022-12-11T23:40:08.907Z,6.32
2022-12-11T23:42:35.874Z,7.35
2022-12-11T23:45:02.849Z,7.45
2022-12-11T23:47:30.257Z,7.10
2022-12-11T23:49:57.103Z,8.07
2022-12-11T23:52:24.963Z,6.55
2022-12-11T23:54:52.048Z,7.60
2022-12-11T23:59:45.883Z,7.00
